Time;durP1;ratioP1;P1;durP2;ratioP2;P2;SDS_P1;SDS_P2;PMS_P1;PMS_P2;Temp;Humidity;BMP_temperature;BMP_pressure;BME280_temperature;BME280_humidity;BME280_pressure;Samples;Min_cycle;Max_cycle;Signal;HPM_P1;HPM_P2
2022/11/25 00:01:07;;;;;;;39.30;20.88;;;;;;;;;;5078294;28;20414;-81
2022/11/25 00:03:34;;;;;;;44.10;21.98;;;;;;;;;;5074156;28;20425;-81
2022/11/25 00:06:07;;;;;;;35.60;20.13;;;;;;;;;;5080274;28;20419;-81
2022/11/25 00:08:34;;;;;;;47.67;21.85;;;;;;;;;;5062854;28;20423;-81
2022/11/25 00:11:02;;;;;;;39.80;21.02;;;;;;;;;;5076672;28;20413;-81
2022/11/25 00:13:28;;;;;;;42.45;20.50;;;;;;;;;;5077095;28;20418;-80
2022/11/25 00:15:54;;;;;;;41.03;21.30;;;;;;;;;;5080418;28;20407;-81
2022/11/25 00:18:22;;;;;;;33.53;20.13;;;;;;;;;;5082410;28;20407;-81
2022/11/25 00:20:49;;;;;;;44.72;21.10;;;;;;;;;;5083930;28;20422;-81
2022/11/25 00:23:15;;;;;;;36.22;20.50;;;;;;;;;;5080176;28;20430;-81
2022/11/25 00:25:42;;;;;;;38.97;21.70;;;;;;;;;;5080527;28;20409;-81
2022/11/25 00:28:09;;;;;;;37.90;21.00;;;;;;;;;;5082492;28;20454;-81
2022/11/25 00:30:36;;;;;;;40.17;20.50;;;;;;;;;;5078240;28;20415;-81
2022/11/25 00:33:02;;;;;;;38.57;20.90;;;;;;;;;;5085414;28;20502;-81
2022/11/25 00:35:29;;;;;;;36.75;20.27;;;;;;;;;;5084029;28;20417;-81
2022/11/25 00:37:55;;;;;;;37.37;19.80;;;;;;;;;;5085394;28;20412;-81
2022/11/25 00:40:22;;;;;;;32.07;18.70;;;;;;;;;;5077533;28;20410;-81
2022/11/25 00:45:34;;;;;;;32.93;18.33;;;;;;;;;;5081257;28;21001;-80
2022/11/25 00:48:00;;;;;;;33.20;18.50;;;;;;;;;;5077080;28;20430;-81
2022/11/25 00:50:26;;;;;;;37.15;18.27;;;;;;;;;;5083623;28;20409;-81
2022/11/25 00:52:53;;;;;;;31.05;18.00;;;;;;;;;;5083893;28;20781;-81
2022/11/25 00:55:19;;;;;;;34.20;17.88;;;;;;;;;;5079476;28;20440;-81
2022/11/25 00:57:46;;;;;;;32.00;17.33;;;;;;;;;;5082967;28;20773;-81
2022/11/25 01:00:12;;;;;;;34.33;17.02;;;;;;;;;;5083455;28;20913;-81
2022/11/25 01:02:40;;;;;;;34.22;17.20;;;;;;;;;;5076231;28;20438;-81
2022/11/25 01:05:07;;;;;;;35.72;17.88;;;;;;;;;;5082051;28;20417;-81
2022/11/25 01:07:33;;;;;;;32.63;16.25;;;;;;;;;;5083270;28;20925;-81
2022/11/25 01:10:00;;;;;;;29.13;16.10;;;;;;;;;;5080881;28;20435;-81
2022/11/25 01:12:26;;;;;;;36.10;16.30;;;;;;;;;;5065277;28;20406;-81
2022/11/25 01:14:52;;;;;;;31.40;16.00;;;;;;;;;;5080723;28;20430;-81
2022/11/25 01:17:19;;;;;;;37.00;16.73;;;;;;;;;;5080079;28;20419;-82
2022/11/25 01:19:47;;;;;;;28.90;15.73;;;;;;;;;;5073600;28;20783;-81
2022/11/25 01:22:13;;;;;;;32.15;14.90;;;;;;;;;;5078646;28;20410;-81
2022/11/25 01:24:40;;;;;;;26.77;14.73;;;;;;;;;;5079620;28;20526;-81
2022/11/25 01:27:08;;;;;;;29.45;16.45;;;;;;;;;;5079719;28;20422;-80
2022/11/25 01:29:34;;;;;;;31.02;16.20;;;;;;;;;;5084860;28;20789;-81
2022/11/25 01:32:01;;;;;;;21.70;14.48;;;;;;;;;;5076798;28;20797;-81
2022/11/25 01:34:30;;;;;;;29.30;14.90;;;;;;;;;;5080293;28;20427;-81
2022/11/25 01:36:58;;;;;;;24.60;13.90;;;;;;;;;;5080166;28;20629;-81
2022/11/25 01:39:25;;;;;;;31.50;15.93;;;;;;;;;;5081840;28;20423;-81
2022/11/25 01:41:53;;;;;;;25.23;14.20;;;;;;;;;;5076182;28;20424;-81
2022/11/25 01:44:21;;;;;;;30.70;14.65;;;;;;;;;;5079541;28;20848;-81
2022/11/25 01:46:51;;;;;;;25.88;14.73;;;;;;;;;;5080456;28;20435;-81
2022/11/25 01:49:19;;;;;;;30.08;15.70;;;;;;;;;;5080094;28;20449;-81
2022/11/25 01:51:48;;;;;;;29.60;14.60;;;;;;;;;;5079596;28;20434;-81
2022/11/25 01:54:18;;;;;;;26.08;14.30;;;;;;;;;;5074272;28;20440;-81
2022/11/25 01:56:47;;;;;;;29.02;14.50;;;;;;;;;;5072796;28;20459;-81
2022/11/25 01:59:14;;;;;;;28.52;14.00;;;;;;;;;;5069682;28;20911;-81
2022/11/25 02:01:40;;;;;;;32.60;14.35;;;;;;;;;;5056114;28;20425;-81
2022/11/25 02:04:07;;;;;;;24.00;14.00;;;;;;;;;;5074629;28;20430;-81
2022/11/25 02:06:35;;;;;;;28.05;12.93;;;;;;;;;;5074649;28;20807;-81
2022/11/25 02:09:04;;;;;;;22.23;12.35;;;;;;;;;;5080107;28;20438;-81
2022/11/25 02:11:33;;;;;;;21.88;11.90;;;;;;;;;;5076578;28;20429;-81
2022/11/25 02:14:00;;;;;;;26.73;11.75;;;;;;;;;;5075739;28;20437;-81
2022/11/25 02:16:28;;;;;;;22.00;12.20;;;;;;;;;;5074063;28;20723;-81
2022/11/25 02:18:54;;;;;;;25.10;11.50;;;;;;;;;;5073972;28;20450;-81
2022/11/25 02:21:24;;;;;;;27.55;11.05;;;;;;;;;;5075960;28;20916;-80
2022/11/25 02:23:52;;;;;;;27.13;12.13;;;;;;;;;;5058656;28;20429;-81
2022/11/25 02:26:20;;;;;;;26.35;10.88;;;;;;;;;;5074333;28;20938;-81
2022/11/25 02:28:47;;;;;;;24.45;10.10;;;;;;;;;;5077954;28;20445;-81
2022/11/25 02:31:18;;;;;;;23.20;10.40;;;;;;;;;;5060078;28;20420;-81
2022/11/25 02:33:45;;;;;;;23.40;11.18;;;;;;;;;;5078507;28;20427;-81
2022/11/25 02:36:13;;;;;;;22.85;9.95;;;;;;;;;;5081108;28;20414;-81
2022/11/25 02:38:42;;;;;;;19.43;8.80;;;;;;;;;;5075160;28;20476;-81
2022/11/25 02:41:11;;;;;;;24.30;9.65;;;;;;;;;;5062205;28;20433;-80
2022/11/25 02:43:40;;;;;;;21.45;9.50;;;;;;;;;;5083802;28;20414;-81
2022/11/25 02:46:08;;;;;;;23.73;9.48;;;;;;;;;;5079461;28;20409;-80
2022/11/25 02:48:36;;;;;;;20.03;9.10;;;;;;;;;;5079323;28;20435;-81
2022/11/25 02:51:03;;;;;;;17.52;9.00;;;;;;;;;;5081676;28;20418;-81
2022/11/25 02:53:30;;;;;;;20.60;8.88;;;;;;;;;;5080339;28;20944;-80
2022/11/25 02:55:56;;;;;;;18.27;8.90;;;;;;;;;;5076696;28;20787;-81
2022/11/25 02:58:23;;;;;;;16.67;8.15;;;;;;;;;;5077761;28;20431;-81
2022/11/25 03:00:51;;;;;;;22.15;8.60;;;;;;;;;;5065483;28;20413;-81
2022/11/25 03:03:17;;;;;;;17.05;8.57;;;;;;;;;;5075096;28;20426;-81
2022/11/25 03:05:44;;;;;;;21.27;8.35;;;;;;;;;;5076971;28;20418;-81
2022/11/25 03:08:11;;;;;;;16.95;8.70;;;;;;;;;;5083132;28;20407;-80
2022/11/25 03:10:38;;;;;;;17.00;8.20;;;;;;;;;;5082497;28;20903;-81
2022/11/25 03:13:05;;;;;;;19.40;8.20;;;;;;;;;;5075812;28;20918;-81
2022/11/25 03:15:31;;;;;;;16.63;8.10;;;;;;;;;;5076999;28;20422;-81
2022/11/25 03:17:59;;;;;;;21.98;8.23;;;;;;;;;;5078665;28;20438;-80
2022/11/25 03:20:25;;;;;;;17.73;7.50;;;;;;;;;;5079686;28;20417;-80
2022/11/25 03:22:52;;;;;;;20.92;8.30;;;;;;;;;;5084988;28;20406;-81
2022/11/25 03:25:18;;;;;;;21.63;8.07;;;;;;;;;;5080506;28;20471;-81
2022/11/25 03:27:45;;;;;;;18.42;8.20;;;;;;;;;;5076585;28;20430;-80
2022/11/25 03:30:12;;;;;;;17.45;7.20;;;;;;;;;;5076893;28;20456;-81
2022/11/25 03:32:38;;;;;;;20.60;7.00;;;;;;;;;;5073016;28;20433;-81
2022/11/25 03:35:10;;;;;;;20.08;7.10;;;;;;;;;;5077859;28;20423;-81
2022/11/25 03:37:37;;;;;;;15.45;6.80;;;;;;;;;;5075676;28;20410;-81
2022/11/25 03:40:03;;;;;;;21.17;7.20;;;;;;;;;;5076344;28;20942;-81
2022/11/25 03:42:30;;;;;;;13.05;6.32;;;;;;;;;;5082074;28;20510;-81
2022/11/25 03:44:56;;;;;;;17.83;7.20;;;;;;;;;;5080760;28;20776;-81
2022/11/25 03:47:23;;;;;;;17.35;7.65;;;;;;;;;;5078385;28;20426;-81
2022/11/25 03:49:49;;;;;;;16.90;7.32;;;;;;;;;;5079563;28;20426;-81
2022/11/25 03:52:17;;;;;;;17.30;7.85;;;;;;;;;;5074847;28;20418;-81
2022/11/25 03:54:44;;;;;;;19.73;7.28;;;;;;;;;;5063507;28;20417;-81
2022/11/25 03:57:10;;;;;;;14.90;6.73;;;;;;;;;;5079453;28;20407;-81
2022/11/25 03:59:37;;;;;;;18.13;7.03;;;;;;;;;;5076294;28;20426;-81
2022/11/25 04:02:03;;;;;;;12.73;6.40;;;;;;;;;;5080104;28;20442;-81
2022/11/25 04:04:30;;;;;;;16.98;6.60;;;;;;;;;;5074305;28;20423;-81
2022/11/25 04:06:56;;;;;;;19.30;7.18;;;;;;;;;;5077404;28;20912;-81
2022/11/25 04:09:24;;;;;;;15.03;5.90;;;;;;;;;;5077539;28;20427;-81
2022/11/25 04:14:35;;;;;;;20.35;7.18;;;;;;;;;;5078216;28;20390;-81
2022/11/25 04:17:01;;;;;;;18.08;6.80;;;;;;;;;;5078964;28;20429;-81
2022/11/25 04:19:29;;;;;;;14.05;6.90;;;;;;;;;;5075944;28;20411;-81
2022/11/25 04:21:58;;;;;;;19.70;7.80;;;;;;;;;;5076526;28;20938;-81
2022/11/25 04:24:26;;;;;;;17.05;6.38;;;;;;;;;;5075561;28;20804;-81
2022/11/25 04:26:52;;;;;;;15.77;6.20;;;;;;;;;;5079115;28;20416;-81
2022/11/25 04:29:19;;;;;;;24.67;7.43;;;;;;;;;;5073808;28;20426;-81
2022/11/25 04:31:45;;;;;;;19.73;6.32;;;;;;;;;;5078841;28;20422;-81
2022/11/25 04:34:12;;;;;;;16.20;6.18;;;;;;;;;;5078674;28;20423;-80
2022/11/25 04:36:39;;;;;;;17.90;6.43;;;;;;;;;;5080201;28;20426;-81
2022/11/25 04:39:06;;;;;;;15.27;5.90;;;;;;;;;;5079078;28;21063;-81
2022/11/25 04:41:33;;;;;;;19.08;6.75;;;;;;;;;;5079110;28;21068;-81
2022/11/25 04:44:00;;;;;;;16.00;5.80;;;;;;;;;;5077856;28;20412;-81
2022/11/25 04:46:31;;;;;;;15.98;6.13;;;;;;;;;;5072306;28;20419;-81
2022/11/25 04:48:57;;;;;;;12.32;6.00;;;;;;;;;;5073989;28;20939;-81
2022/11/25 04:51:24;;;;;;;12.52;6.15;;;;;;;;;;5076509;28;20427;-81
2022/11/25 04:53:50;;;;;;;18.70;6.67;;;;;;;;;;5069189;28;20532;-81
2022/11/25 04:56:17;;;;;;;16.77;6.70;;;;;;;;;;5074292;28;20427;-81
2022/11/25 05:01:29;;;;;;;18.40;6.80;;;;;;;;;;5075862;28;20414;-81
2022/11/25 05:03:55;;;;;;;15.00;6.40;;;;;;;;;;5080980;28;20407;-81
2022/11/25 05:06:22;;;;;;;19.63;6.05;;;;;;;;;;5079465;28;20420;-81
2022/11/25 05:08:49;;;;;;;17.92;6.75;;;;;;;;;;5083158;28;20424;-81
2022/11/25 05:11:15;;;;;;;19.92;6.82;;;;;;;;;;5076181;28;20425;-82
2022/11/25 05:13:42;;;;;;;18.77;6.70;;;;;;;;;;5080913;28;20440;-81
2022/11/25 05:16:10;;;;;;;19.33;7.32;;;;;;;;;;5076511;28;20429;-81
2022/11/25 05:18:36;;;;;;;17.73;6.78;;;;;;;;;;5079914;28;20458;-81
2022/11/25 05:21:03;;;;;;;18.77;7.30;;;;;;;;;;5078036;28;20415;-81
2022/11/25 05:23:30;;;;;;;13.70;6.72;;;;;;;;;;5078792;28;20431;-81
2022/11/25 05:25:59;;;;;;;16.67;7.30;;;;;;;;;;5079890;28;20474;-81
2022/11/25 05:28:25;;;;;;;15.93;7.15;;;;;;;;;;5077913;28;20470;-81
2022/11/25 05:30:51;;;;;;;18.42;7.68;;;;;;;;;;5076044;28;20422;-81
2022/11/25 05:33:19;;;;;;;18.33;7.53;;;;;;;;;;5082602;28;20422;-81
2022/11/25 05:35:53;;;;;;;21.05;8.45;;;;;;;;;;5076295;28;20427;-81
2022/11/25 05:38:19;;;;;;;14.40;7.55;;;;;;;;;;5074889;28;20430;-81
2022/11/25 05:40:46;;;;;;;14.25;6.68;;;;;;;;;;5073096;28;20770;-81
2022/11/25 05:43:13;;;;;;;18.90;7.38;;;;;;;;;;5080056;28;20524;-82
2022/11/25 05:45:40;;;;;;;13.90;7.30;;;;;;;;;;5078685;28;20440;-81
2022/11/25 05:48:06;;;;;;;16.97;6.87;;;;;;;;;;5079443;28;20432;-81
2022/11/25 05:50:36;;;;;;;16.88;6.32;;;;;;;;;;5076960;28;20414;-81
2022/11/25 05:53:02;;;;;;;12.32;6.00;;;;;;;;;;5073054;28;20431;-81
2022/11/25 05:55:29;;;;;;;16.30;6.47;;;;;;;;;;5081249;28;20414;-81
2022/11/25 05:57:56;;;;;;;16.20;6.20;;;;;;;;;;5076766;28;20452;-81
2022/11/25 06:00:22;;;;;;;16.55;6.35;;;;;;;;;;5073702;28;20419;-81
2022/11/25 06:02:49;;;;;;;17.52;6.68;;;;;;;;;;5069971;28;20437;-81
2022/11/25 06:05:16;;;;;;;19.20;7.35;;;;;;;;;;5082762;28;20425;-81
2022/11/25 06:07:44;;;;;;;14.90;6.10;;;;;;;;;;5080728;28;20429;-81
2022/11/25 06:10:11;;;;;;;17.52;6.90;;;;;;;;;;5072655;28;20431;-81
2022/11/25 06:12:37;;;;;;;15.52;6.43;;;;;;;;;;5073849;28;20427;-81
2022/11/25 06:15:04;;;;;;;14.07;7.00;;;;;;;;;;5069530;28;20438;-81
2022/11/25 06:17:31;;;;;;;17.35;6.30;;;;;;;;;;5075654;28;20425;-81
2022/11/25 06:19:57;;;;;;;14.80;6.70;;;;;;;;;;5073531;28;20419;-81
2022/11/25 06:22:23;;;;;;;16.52;6.40;;;;;;;;;;5075625;28;20424;-81
2022/11/25 06:24:51;;;;;;;13.33;6.03;;;;;;;;;;5078796;28;20453;-82
2022/11/25 06:27:18;;;;;;;13.07;6.35;;;;;;;;;;5074926;28;20529;-82
2022/11/25 06:29:44;;;;;;;15.00;6.70;;;;;;;;;;5078027;28;20442;-82
2022/11/25 06:32:10;;;;;;;16.17;7.00;;;;;;;;;;5074917;28;20431;-82
2022/11/25 06:34:40;;;;;;;21.77;8.90;;;;;;;;;;5071088;28;20423;-82
2022/11/25 06:37:08;;;;;;;12.98;6.55;;;;;;;;;;5079822;28;20497;-81
2022/11/25 06:39:35;;;;;;;19.80;7.40;;;;;;;;;;5080081;28;20422;-82
2022/11/25 06:42:03;;;;;;;13.32;6.70;;;;;;;;;;5072507;28;21132;-81
2022/11/25 06:44:30;;;;;;;19.05;6.63;;;;;;;;;;5073577;28;20432;-81
2022/11/25 06:46:57;;;;;;;22.55;7.95;;;;;;;;;;5068786;28;20932;-81
2022/11/25 06:49:23;;;;;;;18.08;8.10;;;;;;;;;;5077471;28;20450;-81
2022/11/25 06:51:49;;;;;;;18.25;7.80;;;;;;;;;;5073233;28;20434;-81
2022/11/25 06:54:16;;;;;;;17.92;7.90;;;;;;;;;;5077143;28;20447;-82
2022/11/25 06:56:43;;;;;;;26.73;8.40;;;;;;;;;;5073282;28;21357;-82
2022/11/25 06:59:11;;;;;;;17.77;8.23;;;;;;;;;;5072029;28;20434;-82
2022/11/25 07:01:38;;;;;;;16.65;8.40;;;;;;;;;;5069281;28;20956;-82
2022/11/25 07:04:05;;;;;;;21.50;8.50;;;;;;;;;;5058903;28;20562;-81
2022/11/25 07:06:32;;;;;;;19.58;8.90;;;;;;;;;;5069979;28;20431;-81
2022/11/25 07:08:58;;;;;;;17.63;9.05;;;;;;;;;;5073553;28;20430;-82
2022/11/25 07:11:26;;;;;;;20.67;8.60;;;;;;;;;;5077954;28;20431;-82
2022/11/25 07:13:54;;;;;;;18.42;8.23;;;;;;;;;;5078838;28;20944;-82
2022/11/25 07:16:22;;;;;;;19.15;8.13;;;;;;;;;;5072348;28;20421;-81
2022/11/25 07:18:48;;;;;;;18.17;8.48;;;;;;;;;;5073315;28;20428;-81
2022/11/25 07:21:15;;;;;;;15.17;8.60;;;;;;;;;;5077265;28;20513;-81
2022/11/25 07:23:42;;;;;;;23.93;9.60;;;;;;;;;;5071356;28;20431;-81
2022/11/25 07:26:10;;;;;;;19.77;8.57;;;;;;;;;;5073079;28;20423;-82
2022/11/25 07:28:37;;;;;;;21.20;8.57;;;;;;;;;;5073736;28;20427;-81
2022/11/25 07:31:07;;;;;;;18.92;8.05;;;;;;;;;;5076716;28;20884;-81
2022/11/25 07:33:35;;;;;;;16.75;7.40;;;;;;;;;;5073138;28;20435;-81
2022/11/25 07:36:02;;;;;;;20.17;8.90;;;;;;;;;;5078887;28;20421;-81
2022/11/25 07:38:28;;;;;;;17.07;7.37;;;;;;;;;;5065724;28;20433;-81
2022/11/25 07:40:55;;;;;;;14.70;7.28;;;;;;;;;;5071746;28;20438;-81
2022/11/25 07:43:21;;;;;;;25.05;7.35;;;;;;;;;;5082928;28;20424;-81
2022/11/25 07:45:48;;;;;;;18.17;7.20;;;;;;;;;;5074941;28;20411;-80
2022/11/25 07:48:14;;;;;;;17.00;8.10;;;;;;;;;;5076166;28;20438;-80
2022/11/25 07:50:42;;;;;;;15.68;7.00;;;;;;;;;;5070975;28;20436;-80
2022/11/25 07:53:08;;;;;;;19.52;6.78;;;;;;;;;;5079072;28;20423;-81
2022/11/25 07:55:36;;;;;;;25.05;7.90;;;;;;;;;;5074922;28;20435;-80
2022/11/25 07:58:03;;;;;;;22.33;7.82;;;;;;;;;;5074499;28;20941;-81
2022/11/25 08:00:29;;;;;;;17.52;7.20;;;;;;;;;;5058598;28;20433;-81
2022/11/25 08:02:55;;;;;;;18.80;7.28;;;;;;;;;;5072214;28;20430;-80
2022/11/25 08:05:22;;;;;;;16.08;6.40;;;;;;;;;;5072935;28;20426;-80
2022/11/25 08:07:50;;;;;;;17.08;7.88;;;;;;;;;;5074842;28;20430;-81
2022/11/25 08:10:16;;;;;;;17.33;6.93;;;;;;;;;;5077941;28;20425;-80
2022/11/25 08:12:43;;;;;;;18.75;7.30;;;;;;;;;;5074865;28;20433;-81
2022/11/25 08:15:09;;;;;;;18.80;6.60;;;;;;;;;;5074497;28;20423;-80
2022/11/25 08:17:36;;;;;;;18.55;7.55;;;;;;;;;;5074323;28;20489;-81
2022/11/25 08:20:02;;;;;;;19.95;6.70;;;;;;;;;;5076468;28;20429;-80
2022/11/25 08:22:29;;;;;;;17.52;7.40;;;;;;;;;;5075388;28;20434;-81
2022/11/25 08:24:56;;;;;;;15.40;7.70;;;;;;;;;;5079127;28;20946;-80
2022/11/25 08:27:23;;;;;;;17.45;7.03;;;;;;;;;;5076591;28;20431;-81
2022/11/25 08:29:49;;;;;;;16.70;7.10;;;;;;;;;;5074462;28;20427;-80
2022/11/25 08:32:17;;;;;;;18.15;7.30;;;;;;;;;;5075684;28;20418;-81
2022/11/25 08:34:43;;;;;;;21.48;7.07;;;;;;;;;;5078231;28;20426;-81
2022/11/25 08:37:10;;;;;;;16.20;7.60;;;;;;;;;;5077160;28;20420;-80
2022/11/25 08:39:36;;;;;;;18.25;7.50;;;;;;;;;;5078341;28;20427;-80
2022/11/25 08:42:05;;;;;;;17.63;7.40;;;;;;;;;;5075901;28;20425;-80
2022/11/25 08:44:31;;;;;;;19.85;7.40;;;;;;;;;;5081857;28;20924;-80
2022/11/25 08:46:58;;;;;;;17.27;7.18;;;;;;;;;;5077360;28;20418;-80
2022/11/25 08:49:25;;;;;;;18.40;7.70;;;;;;;;;;5082012;28;20431;-81
2022/11/25 08:51:52;;;;;;;19.50;8.07;;;;;;;;;;5067939;28;20461;-79
2022/11/25 08:54:18;;;;;;;19.35;8.40;;;;;;;;;;5080109;28;20921;-79
2022/11/25 08:56:45;;;;;;;18.45;7.00;;;;;;;;;;5075317;28;20453;-79
2022/11/25 08:59:12;;;;;;;18.10;7.80;;;;;;;;;;5081272;28;20426;-79
2022/11/25 09:01:39;;;;;;;22.15;9.30;;;;;;;;;;5076369;28;20479;-79
2022/11/25 09:04:05;;;;;;;16.00;7.90;;;;;;;;;;5081187;28;20434;-79
2022/11/25 09:06:32;;;;;;;25.45;8.00;;;;;;;;;;5081778;28;20418;-80
2022/11/25 09:09:00;;;;;;;17.13;8.35;;;;;;;;;;5079761;28;20428;-80
2022/11/25 09:11:27;;;;;;;18.90;7.30;;;;;;;;;;5064747;28;20475;-80
2022/11/25 09:13:54;;;;;;;18.00;7.90;;;;;;;;;;5079402;28;20423;-80
2022/11/25 09:16:22;;;;;;;24.67;9.10;;;;;;;;;;5074617;28;20428;-82
2022/11/25 09:18:48;;;;;;;17.95;8.05;;;;;;;;;;5064681;28;20417;-80
2022/11/25 09:21:17;;;;;;;16.58;8.60;;;;;;;;;;5067350;28;20431;-80
2022/11/25 09:23:44;;;;;;;21.00;8.88;;;;;;;;;;5083232;28;20996;-80
2022/11/25 09:26:18;;;;;;;21.20;8.90;;;;;;;;;;5071869;28;20427;-79
2022/11/25 09:28:44;;;;;;;21.73;8.50;;;;;;;;;;5080388;28;20427;-80
2022/11/25 09:31:11;;;;;;;20.92;7.97;;;;;;;;;;5070814;28;20442;-79
2022/11/25 09:33:38;;;;;;;19.42;8.55;;;;;;;;;;5077880;28;20508;-82
2022/11/25 09:36:06;;;;;;;23.15;8.48;;;;;;;;;;5080607;28;20424;-80
2022/11/25 09:38:34;;;;;;;17.42;8.05;;;;;;;;;;5077449;28;20792;-82
2022/11/25 09:41:01;;;;;;;18.52;8.50;;;;;;;;;;5080472;28;20973;-81
2022/11/25 09:46:41;;;;;;;19.67;8.68;;;;;;;;;;5083095;28;20424;-81
2022/11/25 09:49:14;;;;;;;19.77;8.30;;;;;;;;;;5085880;28;20431;-81
2022/11/25 09:51:45;;;;;;;19.80;9.05;;;;;;;;;;5075858;28;20438;-81
2022/11/25 09:54:14;;;;;;;19.10;8.52;;;;;;;;;;5074997;28;20435;-79
2022/11/25 09:56:41;;;;;;;24.25;9.13;;;;;;;;;;5074214;28;20427;-79
2022/11/25 09:59:14;;;;;;;20.50;8.50;;;;;;;;;;5081333;28;20423;-78
2022/11/25 10:01:46;;;;;;;21.75;8.85;;;;;;;;;;5075840;28;20438;-78
2022/11/25 10:04:18;;;;;;;21.13;9.23;;;;;;;;;;5078489;28;20482;-79
2022/11/25 10:06:46;;;;;;;23.33;7.93;;;;;;;;;;5074422;28;20426;-79
2022/11/25 10:09:14;;;;;;;18.52;8.45;;;;;;;;;;5081328;28;20427;-79
2022/11/25 10:11:46;;;;;;;25.15;9.20;;;;;;;;;;5075748;28;20955;-78
2022/11/25 10:14:17;;;;;;;23.52;9.60;;;;;;;;;;5078078;28;20431;-81
2022/11/25 10:16:48;;;;;;;20.92;9.13;;;;;;;;;;5051888;28;20422;-81
2022/11/25 10:19:21;;;;;;;18.52;8.68;;;;;;;;;;5082279;28;20494;-79
2022/11/25 10:21:47;;;;;;;22.92;9.27;;;;;;;;;;5074698;28;20425;-78
2022/11/25 10:24:16;;;;;;;21.40;9.40;;;;;;;;;;5079772;28;20437;-78
2022/11/25 10:26:48;;;;;;;18.13;8.87;;;;;;;;;;5079718;28;20450;-79
2022/11/25 10:29:26;;;;;;;23.45;10.00;;;;;;;;;;5078938;28;20427;-79
2022/11/25 10:31:56;;;;;;;19.88;8.90;;;;;;;;;;5078229;28;20447;-79
2022/11/25 10:34:28;;;;;;;16.60;8.82;;;;;;;;;;5079148;28;20427;-79
2022/11/25 10:36:57;;;;;;;21.70;9.60;;;;;;;;;;5088323;28;20425;-80
2022/11/25 10:39:26;;;;;;;24.10;9.07;;;;;;;;;;5078865;28;20428;-80
2022/11/25 10:41:56;;;;;;;20.08;8.70;;;;;;;;;;5081120;28;20427;-79
2022/11/25 10:44:25;;;;;;;17.45;8.15;;;;;;;;;;5080976;28;20436;-79
2022/11/25 10:46:55;;;;;;;25.90;9.10;;;;;;;;;;5078990;28;20489;-80
2022/11/25 10:49:28;;;;;;;27.15;9.95;;;;;;;;;;5080322;28;20793;-79
2022/11/25 10:51:56;;;;;;;22.27;9.32;;;;;;;;;;5076075;28;20425;-78
2022/11/25 10:54:24;;;;;;;20.88;9.30;;;;;;;;;;5080979;28;20504;-79
2022/11/25 10:56:52;;;;;;;17.92;8.52;;;;;;;;;;5085374;28;20425;-79
2022/11/25 10:59:23;;;;;;;18.30;8.80;;;;;;;;;;5077330;28;20455;-80
2022/11/25 11:01:51;;;;;;;27.45;9.50;;;;;;;;;;5073936;28;20917;-81
2022/11/25 11:04:17;;;;;;;17.67;9.05;;;;;;;;;;5084400;28;20927;-81
2022/11/25 11:06:46;;;;;;;24.52;9.65;;;;;;;;;;5076997;28;20422;-84
2022/11/25 11:09:27;;;;;;;17.30;8.90;;;;;;;;;;5082607;28;20426;-82
2022/11/25 11:11:55;;;;;;;20.13;10.00;;;;;;;;;;5083122;28;20952;-79
2022/11/25 11:14:21;;;;;;;23.63;9.80;;;;;;;;;;5082311;28;20993;-82
2022/11/25 11:16:52;;;;;;;17.00;8.48;;;;;;;;;;5079389;28;20429;-79
2022/11/25 11:19:22;;;;;;;17.90;9.50;;;;;;;;;;5078866;28;20969;-79
2022/11/25 11:21:51;;;;;;;22.15;10.25;;;;;;;;;;5074836;28;20768;-81
2022/11/25 11:24:27;;;;;;;23.30;9.50;;;;;;;;;;5082096;28;20438;-78
2022/11/25 11:27:04;;;;;;;20.35;9.65;;;;;;;;;;5078835;28;20441;-79
2022/11/25 11:29:30;;;;;;;22.40;10.88;;;;;;;;;;5079731;28;20427;-79
2022/11/25 11:31:59;;;;;;;20.83;9.90;;;;;;;;;;5072104;28;20897;-79
2022/11/25 11:34:35;;;;;;;21.13;10.10;;;;;;;;;;5080125;28;20434;-79
2022/11/25 11:37:14;;;;;;;21.38;9.57;;;;;;;;;;5079294;28;20438;-79
2022/11/25 11:39:50;;;;;;;21.30;10.15;;;;;;;;;;5072568;28;20412;-78
2022/11/25 11:42:21;;;;;;;19.25;9.68;;;;;;;;;;5059480;28;20440;-78
2022/11/25 11:44:56;;;;;;;22.50;10.77;;;;;;;;;;5057163;28;20912;-78
2022/11/25 11:47:25;;;;;;;21.75;10.77;;;;;;;;;;5072042;28;20797;-80
2022/11/25 11:50:01;;;;;;;19.88;10.90;;;;;;;;;;5076042;28;20428;-79
2022/11/25 11:52:32;;;;;;;23.85;11.15;;;;;;;;;;5075728;28;20423;-80
2022/11/25 11:55:01;;;;;;;23.35;12.32;;;;;;;;;;5071072;28;20444;-80
2022/11/25 11:57:33;;;;;;;18.45;10.98;;;;;;;;;;5077953;28;20430;-80
2022/11/25 12:00:03;;;;;;;21.77;11.75;;;;;;;;;;5075763;28;20420;-79
2022/11/25 12:02:35;;;;;;;25.45;12.85;;;;;;;;;;5071160;28;20885;-79
2022/11/25 12:05:04;;;;;;;23.30;11.70;;;;;;;;;;5075480;28;20480;-79
2022/11/25 12:07:35;;;;;;;25.50;14.13;;;;;;;;;;5069593;28;20451;-79
2022/11/25 12:10:05;;;;;;;22.40;14.05;;;;;;;;;;5075299;28;20429;-79
2022/11/25 12:12:33;;;;;;;24.10;14.48;;;;;;;;;;5078467;28;20434;-79
2022/11/25 12:15:04;;;;;;;30.55;15.32;;;;;;;;;;5077432;28;20432;-77
2022/11/25 12:17:34;;;;;;;24.42;15.45;;;;;;;;;;5079447;28;20430;-78
2022/11/25 12:20:03;;;;;;;37.05;16.60;;;;;;;;;;5083039;28;20779;-79
2022/11/25 12:22:30;;;;;;;24.75;15.45;;;;;;;;;;5081212;28;20427;-78
2022/11/25 12:25:02;;;;;;;26.90;15.93;;;;;;;;;;5080819;28;20425;-79
2022/11/25 12:27:31;;;;;;;30.40;16.30;;;;;;;;;;5075756;28;20430;-80
2022/11/25 12:30:01;;;;;;;25.67;15.05;;;;;;;;;;5081434;28;20415;-80
2022/11/25 12:32:35;;;;;;;30.88;16.60;;;;;;;;;;5077247;28;20424;-78
2022/11/25 12:35:05;;;;;;;27.73;16.10;;;;;;;;;;5074902;28;20427;-78
2022/11/25 12:37:35;;;;;;;28.88;16.75;;;;;;;;;;5075532;28;20433;-80
2022/11/25 12:40:06;;;;;;;23.60;17.00;;;;;;;;;;5075045;28;20435;-78
2022/11/25 12:42:33;;;;;;;25.58;17.50;;;;;;;;;;5074692;28;20424;-77
2022/11/25 12:45:02;;;;;;;26.52;17.00;;;;;;;;;;5072780;28;20419;-78
2022/11/25 12:47:29;;;;;;;28.48;17.58;;;;;;;;;;5077844;28;20915;-80
2022/11/25 12:49:55;;;;;;;25.42;15.20;;;;;;;;;;5080572;28;20908;-79
2022/11/25 12:52:29;;;;;;;28.98;16.00;;;;;;;;;;5082278;28;20432;-79
2022/11/25 12:55:01;;;;;;;32.42;17.27;;;;;;;;;;5080072;28;20806;-79
2022/11/25 12:57:43;;;;;;;25.33;15.98;;;;;;;;;;5077654;28;20419;-80
2022/11/25 13:00:13;;;;;;;27.42;16.20;;;;;;;;;;5082643;28;20809;-79
2022/11/25 13:02:52;;;;;;;22.35;15.95;;;;;;;;;;5081683;28;20924;-77
2022/11/25 13:05:25;;;;;;;30.35;16.70;;;;;;;;;;5075947;28;20778;-78
2022/11/25 13:07:57;;;;;;;29.80;17.80;;;;;;;;;;5075464;28;20793;-78
2022/11/25 13:10:38;;;;;;;29.23;18.35;;;;;;;;;;5072295;28;20436;-77
2022/11/25 13:13:22;;;;;;;31.52;20.08;;;;;;;;;;5076125;28;20434;-78
2022/11/25 13:15:51;;;;;;;31.95;18.10;;;;;;;;;;5076419;28;20424;-78
2022/11/25 13:18:20;;;;;;;29.70;17.73;;;;;;;;;;5077682;28;20459;-80
2022/11/25 13:20:51;;;;;;;30.90;16.30;;;;;;;;;;5076298;28;20819;-78
2022/11/25 13:23:23;;;;;;;27.80;15.88;;;;;;;;;;5077544;28;20414;-78
2022/11/25 13:25:50;;;;;;;30.58;16.52;;;;;;;;;;5080661;28;20424;-79
2022/11/25 13:28:27;;;;;;;34.53;19.58;;;;;;;;;;5079668;28;20741;-77
2022/11/25 13:30:56;;;;;;;26.63;16.85;;;;;;;;;;5079079;28;20439;-79
2022/11/25 13:33:43;;;;;;;25.05;16.35;;;;;;;;;;5074147;28;20919;-78
2022/11/25 13:36:18;;;;;;;24.13;16.10;;;;;;;;;;5035490;28;20793;-78
2022/11/25 13:39:03;;;;;;;25.60;16.88;;;;;;;;;;5078880;28;20432;-78
2022/11/25 13:41:36;;;;;;;31.60;16.80;;;;;;;;;;5072728;28;20419;-78
2022/11/25 13:44:05;;;;;;;23.65;15.85;;;;;;;;;;5079405;28;20818;-81
2022/11/25 13:46:37;;;;;;;26.67;14.70;;;;;;;;;;5075816;28;20493;-78
2022/11/25 13:49:04;;;;;;;23.80;14.95;;;;;;;;;;5077636;28;20429;-78
2022/11/25 13:51:31;;;;;;;29.33;14.60;;;;;;;;;;5075794;28;20927;-78
2022/11/25 13:53:59;;;;;;;24.25;14.20;;;;;;;;;;5081476;28;20426;-78
2022/11/25 13:56:27;;;;;;;23.48;15.60;;;;;;;;;;5078148;28;20920;-78
2022/11/25 13:59:12;;;;;;;22.67;13.20;;;;;;;;;;5073087;28;20935;-78
2022/11/25 14:01:41;;;;;;;19.88;13.35;;;;;;;;;;5069525;28;20428;-78
2022/11/25 14:04:08;;;;;;;24.77;13.80;;;;;;;;;;5083853;28;20412;-78
2022/11/25 14:06:39;;;;;;;20.15;12.70;;;;;;;;;;5080670;28;20415;-78
2022/11/25 14:09:10;;;;;;;27.05;14.18;;;;;;;;;;5077581;28;20527;-78
2022/11/25 14:12:01;;;;;;;25.70;13.43;;;;;;;;;;5081220;28;20428;-78
2022/11/25 14:14:45;;;;;;;20.10;13.68;;;;;;;;;;5082917;28;20432;-78
2022/11/25 14:17:23;;;;;;;19.90;13.07;;;;;;;;;;5072360;28;20431;-79
2022/11/25 14:20:03;;;;;;;19.90;13.40;;;;;;;;;;5082498;28;20414;-78
2022/11/25 14:22:39;;;;;;;24.38;14.05;;;;;;;;;;5078997;28;20466;-78
2022/11/25 14:25:13;;;;;;;21.17;13.20;;;;;;;;;;5073996;28;20419;-78
2022/11/25 14:27:44;;;;;;;21.50;13.60;;;;;;;;;;5082773;28;20414;-78
2022/11/25 14:30:11;;;;;;;21.70;14.80;;;;;;;;;;5081303;28;20434;-78
2022/11/25 14:32:42;;;;;;;30.05;14.20;;;;;;;;;;5079369;28;20423;-78
2022/11/25 14:35:12;;;;;;;24.63;16.80;;;;;;;;;;5079381;28;20412;-78
2022/11/25 14:37:41;;;;;;;22.92;16.02;;;;;;;;;;5081914;28;20413;-78
2022/11/25 14:40:12;;;;;;;24.60;15.20;;;;;;;;;;5083774;28;20416;-78
2022/11/25 14:42:40;;;;;;;23.23;14.27;;;;;;;;;;5078474;28;20422;-80